Time;durP1;ratioP1;P1;durP2;ratioP2;P2;SDS_P1;SDS_P2;PMS_P1;PMS_P2;Temp;Humidity;BMP_temperature;BMP_pressure;BME280_temperature;BME280_humidity;BME280_pressure;Samples;Min_cycle;Max_cycle;Signal;HPM_P1;HPM_P2
2023/07/31 00:00:05;;;;;;;2.38;0.65;;;19.30;99.90;;;;;;5027982;28;20045;-81
2023/07/31 00:02:31;;;;;;;4.25;0.90;;;19.20;99.90;;;;;;5034811;28;20112;-80
2023/07/31 00:04:57;;;;;;;3.15;1.20;;;19.20;99.90;;;;;;5052839;28;20108;-80
2023/07/31 00:07:22;;;;;;;3.22;0.98;;;19.10;99.90;;;;;;5034881;28;20032;-81
2023/07/31 00:09:48;;;;;;;2.92;1.08;;;19.10;99.90;;;;;;5035025;28;20049;-80
2023/07/31 00:12:13;;;;;;;3.95;0.70;;;19.10;99.90;;;;;;5035439;28;20036;-82
2023/07/31 00:14:39;;;;;;;1.98;0.90;;;19.00;99.90;;;;;;5052722;28;20028;-81
2023/07/31 00:17:05;;;;;;;3.22;0.95;;;19.10;99.90;;;;;;5053153;28;20028;-81
2023/07/31 00:19:30;;;;;;;2.97;1.00;;;19.00;99.90;;;;;;5040659;28;20386;-80
2023/07/31 00:21:56;;;;;;;1.23;0.80;;;19.10;99.90;;;;;;5054321;28;20025;-80
2023/07/31 00:24:21;;;;;;;3.70;0.88;;;19.00;99.90;;;;;;5054922;28;20082;-82
2023/07/31 00:26:47;;;;;;;3.38;0.80;;;19.10;99.90;;;;;;5056870;28;20166;-80
2023/07/31 00:29:13;;;;;;;2.97;0.77;;;19.00;99.90;;;;;;5038703;28;20036;-79
2023/07/31 00:31:38;;;;;;;3.05;0.88;;;18.90;99.90;;;;;;5038596;28;20119;-80
2023/07/31 00:34:04;;;;;;;2.72;1.20;;;18.90;99.90;;;;;;5038607;28;20028;-82
2023/07/31 00:36:30;;;;;;;3.60;0.90;;;18.80;99.90;;;;;;5056234;28;20029;-81
2023/07/31 00:38:55;;;;;;;4.18;1.20;;;18.80;99.90;;;;;;5039032;28;20029;-80
2023/07/31 00:41:21;;;;;;;5.05;1.13;;;18.70;99.90;;;;;;5038699;28;20464;-80
2023/07/31 00:43:46;;;;;;;4.40;1.10;;;18.70;99.90;;;;;;5038171;28;20031;-80
2023/07/31 00:46:12;;;;;;;4.93;1.20;;;18.70;99.90;;;;;;5038622;28;20377;-81
2023/07/31 00:48:39;;;;;;;4.05;1.05;;;18.60;99.90;;;;;;5037968;28;20025;-81
2023/07/31 00:51:06;;;;;;;3.05;1.00;;;18.60;99.90;;;;;;5038438;28;20040;-80
2023/07/31 00:53:32;;;;;;;5.97;1.00;;;18.60;99.90;;;;;;5038285;28;20029;-80
2023/07/31 00:55:58;;;;;;;3.78;0.90;;;18.50;99.90;;;;;;5056372;28;20036;-81
2023/07/31 00:58:23;;;;;;;4.38;1.00;;;18.50;99.90;;;;;;5056831;28;20033;-82
2023/07/31 01:00:50;;;;;;;2.90;0.88;;;18.50;99.90;;;;;;5073184;28;20402;-81
2023/07/31 01:03:16;;;;;;;2.03;0.90;;;18.50;99.90;;;;;;5058449;28;20042;-81
2023/07/31 01:05:57;;;;;;;2.03;1.00;;;18.50;99.90;;;;;;5057812;28;20025;-81
2023/07/31 01:08:40;;;;;;;2.08;1.15;;;18.40;99.90;;;;;;5076017;28;20021;-81
2023/07/31 01:11:21;;;;;;;1.77;0.93;;;18.50;99.90;;;;;;5074902;28;20104;-81
2023/07/31 01:13:47;;;;;;;3.30;1.05;;;18.40;99.90;;;;;;5074564;28;20032;-82
2023/07/31 01:16:13;;;;;;;2.67;1.15;;;18.40;99.90;;;;;;5075850;28;20039;-81
2023/07/31 01:18:38;;;;;;;2.78;1.23;;;18.40;99.90;;;;;;5074897;28;20085;-81
2023/07/31 01:21:31;;;;;;;3.28;0.90;;;18.40;99.90;;;;;;5058213;28;20455;-81
2023/07/31 01:24:15;;;;;;;3.90;1.20;;;18.30;99.90;;;;;;5044261;28;20484;-81
2023/07/31 01:26:47;;;;;;;5.60;1.23;;;18.30;99.90;;;;;;5060364;28;20028;-82
2023/07/31 01:29:15;;;;;;;3.25;1.00;;;18.30;99.90;;;;;;5059143;28;20055;-80
2023/07/31 01:31:43;;;;;;;4.28;1.30;;;18.20;99.90;;;;;;5076055;28;20108;-81
2023/07/31 01:34:11;;;;;;;3.28;0.88;;;18.20;99.90;;;;;;5078004;28;20025;-81
2023/07/31 01:36:37;;;;;;;2.33;0.77;;;18.20;99.90;;;;;;5076363;28;20025;-81
2023/07/31 01:39:03;;;;;;;2.67;1.00;;;18.20;99.90;;;;;;5059754;28;20077;-81
2023/07/31 01:41:29;;;;;;;3.10;1.10;;;18.20;99.90;;;;;;5079154;28;20020;-81
2023/07/31 01:43:55;;;;;;;2.65;1.05;;;18.10;99.90;;;;;;5085376;28;20031;-81
2023/07/31 01:46:20;;;;;;;3.70;1.10;;;18.10;99.90;;;;;;5080465;28;20466;-81
2023/07/31 01:48:46;;;;;;;1.85;1.00;;;18.10;99.90;;;;;;5075122;28;20217;-82
2023/07/31 01:51:11;;;;;;;2.97;0.95;;;18.10;99.90;;;;;;5075536;28;20024;-82
2023/07/31 01:53:37;;;;;;;2.80;1.00;;;18.00;99.90;;;;;;5057063;28;20028;-82
2023/07/31 01:56:03;;;;;;;3.17;1.02;;;18.00;99.90;;;;;;5075823;28;20470;-81
2023/07/31 01:58:28;;;;;;;3.13;1.10;;;18.00;99.90;;;;;;5074529;28;20044;-82
2023/07/31 02:00:54;;;;;;;1.98;0.80;;;18.00;99.90;;;;;;5057700;28;20048;-82
2023/07/31 02:03:19;;;;;;;3.13;0.90;;;17.90;99.90;;;;;;5057621;28;20029;-81
2023/07/31 02:05:46;;;;;;;3.90;0.90;;;18.00;99.90;;;;;;5057038;28;20028;-81
2023/07/31 02:08:12;;;;;;;2.25;0.90;;;17.90;99.90;;;;;;5057382;28;20029;-82
2023/07/31 02:10:38;;;;;;;2.90;1.00;;;17.90;99.90;;;;;;5056609;28;20086;-82
2023/07/31 02:13:03;;;;;;;7.97;2.00;;;17.90;99.90;;;;;;5057066;28;20093;-81
2023/07/31 02:15:30;;;;;;;3.25;1.20;;;17.90;99.90;;;;;;5056742;28;20024;-81
2023/07/31 02:17:56;;;;;;;2.33;0.82;;;17.90;99.90;;;;;;5074598;28;20055;-82
2023/07/31 02:20:21;;;;;;;2.45;1.00;;;17.90;99.90;;;;;;5057008;28;20024;-82
2023/07/31 02:22:47;;;;;;;3.35;0.80;;;17.90;99.90;;;;;;5056966;28;20028;-82
2023/07/31 02:25:13;;;;;;;3.95;1.10;;;17.90;99.90;;;;;;5057271;28;20020;-82
2023/07/31 02:27:38;;;;;;;2.85;0.75;;;17.80;99.90;;;;;;5056898;28;20035;-81
2023/07/31 02:30:04;;;;;;;3.40;0.75;;;17.80;99.90;;;;;;5056619;28;20504;-81
2023/07/31 02:32:30;;;;;;;3.15;0.88;;;17.80;99.90;;;;;;5056296;28;20029;-82
2023/07/31 02:34:55;;;;;;;2.63;1.02;;;17.90;99.90;;;;;;5074706;28;20042;-81
2023/07/31 02:37:21;;;;;;;1.90;0.93;;;17.80;99.90;;;;;;5057238;28;20040;-80
2023/07/31 02:39:46;;;;;;;4.40;1.27;;;17.80;99.90;;;;;;5074193;28;20043;-82
2023/07/31 02:42:13;;;;;;;3.30;0.90;;;17.80;99.90;;;;;;5056478;28;20029;-81
2023/07/31 02:44:39;;;;;;;3.22;1.00;;;17.80;99.90;;;;;;5074464;28;20031;-82
2023/07/31 02:47:04;;;;;;;4.13;0.90;;;17.80;99.90;;;;;;5056787;28;20028;-81
2023/07/31 02:49:30;;;;;;;1.88;0.98;;;17.70;99.90;;;;;;5056100;28;20519;-82
2023/07/31 02:51:55;;;;;;;3.45;0.90;;;17.70;99.90;;;;;;5056391;28;20029;-82
2023/07/31 02:54:21;;;;;;;3.28;1.17;;;17.70;99.90;;;;;;5056580;28;20028;-82
2023/07/31 02:56:47;;;;;;;3.38;1.17;;;17.70;99.90;;;;;;5056104;28;20021;-82
2023/07/31 02:59:13;;;;;;;5.80;1.13;;;17.70;99.90;;;;;;5056271;28;20056;-81
2023/07/31 03:01:39;;;;;;;4.53;0.82;;;17.70;99.90;;;;;;5056251;28;20052;-82
2023/07/31 03:04:05;;;;;;;3.70;1.15;;;17.70;99.90;;;;;;5056457;28;20071;-82
2023/07/31 03:06:30;;;;;;;3.33;1.08;;;17.70;99.90;;;;;;5055990;28;20024;-82
2023/07/31 03:08:56;;;;;;;2.40;0.75;;;17.70;99.90;;;;;;5073863;28;20031;-82
2023/07/31 03:11:22;;;;;;;5.25;1.17;;;17.70;99.90;;;;;;5074118;28;20385;-82
2023/07/31 03:13:47;;;;;;;4.60;0.82;;;17.70;99.90;;;;;;5055962;28;20105;-82
2023/07/31 03:16:13;;;;;;;4.65;1.13;;;17.60;99.90;;;;;;5056107;28;20021;-82
2023/07/31 03:18:38;;;;;;;4.30;1.00;;;17.60;99.90;;;;;;5074067;28;20544;-82
2023/07/31 03:21:04;;;;;;;3.03;0.75;;;17.60;99.90;;;;;;5073785;28;20035;-81
2023/07/31 03:23:30;;;;;;;10.40;1.35;;;17.60;99.90;;;;;;5074088;28;20021;-82
2023/07/31 03:26:01;;;;;;;4.05;1.20;;;17.60;99.90;;;;;;5055552;28;20043;-81
2023/07/31 03:28:27;;;;;;;2.47;0.90;;;17.60;99.90;;;;;;5056377;28;20024;-82
2023/07/31 03:30:52;;;;;;;2.90;1.15;;;17.60;99.90;;;;;;5055837;28;20488;-82
2023/07/31 03:33:18;;;;;;;3.35;1.10;;;17.60;99.90;;;;;;5073754;28;20024;-81
2023/07/31 03:35:44;;;;;;;4.05;1.08;;;17.50;99.90;;;;;;5055605;28;20032;-81
2023/07/31 03:38:10;;;;;;;1.60;0.88;;;17.60;99.90;;;;;;5056136;28;20024;-82
2023/07/31 03:40:35;;;;;;;3.72;0.98;;;17.60;99.90;;;;;;5055685;28;20031;-81
2023/07/31 03:43:01;;;;;;;4.18;0.90;;;17.60;99.90;;;;;;5056247;28;20031;-82
2023/07/31 03:45:26;;;;;;;3.38;0.88;;;17.50;99.90;;;;;;5056025;28;20068;-82
2023/07/31 03:47:53;;;;;;;2.85;0.93;;;17.60;99.90;;;;;;5055720;28;20508;-82
2023/07/31 03:50:19;;;;;;;5.05;1.23;;;17.60;99.90;;;;;;5073779;28;20025;-82
2023/07/31 03:52:44;;;;;;;4.43;1.17;;;17.60;99.90;;;;;;5073454;28;20035;-82
2023/07/31 03:55:10;;;;;;;1.35;0.80;;;17.60;99.90;;;;;;5055842;28;20386;-82
2023/07/31 03:57:35;;;;;;;1.80;1.08;;;17.60;99.90;;;;;;5055965;28;20056;-82
2023/07/31 04:00:01;;;;;;;4.43;1.13;;;17.60;99.90;;;;;;5076989;28;20049;-81
2023/07/31 04:02:26;;;;;;;5.07;0.95;;;17.70;99.90;;;;;;5059720;28;20031;-82
2023/07/31 04:04:52;;;;;;;1.80;0.93;;;17.70;99.90;;;;;;5059070;28;20063;-81
2023/07/31 04:07:17;;;;;;;2.85;0.85;;;17.70;99.90;;;;;;5077603;28;20056;-82
2023/07/31 04:09:43;;;;;;;4.90;1.10;;;17.70;99.90;;;;;;5076748;28;20070;-81
2023/07/31 04:12:08;;;;;;;5.07;1.10;;;17.70;99.90;;;;;;5059565;28;20062;-81
2023/07/31 04:14:34;;;;;;;4.80;1.15;;;17.80;99.90;;;;;;5076881;28;20020;-81
2023/07/31 04:17:00;;;;;;;1.75;0.80;;;17.70;99.90;;;;;;5059369;28;20066;-82
2023/07/31 04:19:25;;;;;;;3.80;1.00;;;17.70;99.90;;;;;;5059293;28;20029;-82
2023/07/31 04:21:51;;;;;;;4.55;1.00;;;17.80;99.90;;;;;;5058657;28;20024;-81
2023/07/31 04:24:23;;;;;;;3.80;1.27;;;17.70;99.90;;;;;;5076767;28;20380;-82
2023/07/31 04:26:52;;;;;;;4.28;0.88;;;17.80;99.90;;;;;;5058359;28;20020;-82
2023/07/31 04:29:18;;;;;;;2.38;0.95;;;17.80;99.90;;;;;;5058395;28;20024;-81
2023/07/31 04:31:43;;;;;;;4.43;0.93;;;17.80;99.90;;;;;;5058346;28;20039;-82
2023/07/31 04:34:09;;;;;;;2.78;1.25;;;17.80;99.90;;;;;;5076590;28;20048;-82
2023/07/31 04:36:35;;;;;;;2.33;1.05;;;17.80;99.90;;;;;;5076335;28;20064;-82
2023/07/31 04:39:01;;;;;;;4.80;1.30;;;17.80;99.90;;;;;;5058024;28;20033;-82
2023/07/31 04:41:27;;;;;;;4.90;1.02;;;17.70;99.90;;;;;;5058719;28;20051;-82
2023/07/31 04:43:52;;;;;;;3.25;1.10;;;17.70;99.90;;;;;;5075835;28;20052;-82
2023/07/31 04:46:18;;;;;;;4.43;1.00;;;17.70;99.90;;;;;;5058746;28;20420;-82
2023/07/31 04:48:43;;;;;;;2.00;0.90;;;17.70;99.90;;;;;;5057731;28;20056;-82
2023/07/31 04:51:09;;;;;;;3.97;1.10;;;17.70;99.90;;;;;;5076421;28;20028;-83
2023/07/31 04:53:35;;;;;;;2.35;0.90;;;17.70;99.90;;;;;;5076164;28;20029;-82
2023/07/31 04:56:01;;;;;;;2.05;1.00;;;17.80;99.90;;;;;;5075691;28;20085;-83
2023/07/31 04:58:27;;;;;;;5.43;1.08;;;17.70;99.90;;;;;;5076595;28;20465;-83
2023/07/31 05:00:53;;;;;;;2.95;1.35;;;17.70;99.90;;;;;;5075724;28;20052;-83
2023/07/31 05:03:19;;;;;;;3.17;1.05;;;17.70;99.90;;;;;;5058517;28;20028;-83
2023/07/31 05:05:44;;;;;;;3.22;0.90;;;17.70;99.90;;;;;;5058328;28;20029;-82
2023/07/31 05:08:10;;;;;;;4.63;2.58;;;17.80;99.90;;;;;;5058903;28;20028;-83
2023/07/31 05:10:35;;;;;;;3.28;1.50;;;17.90;99.90;;;;;;5075408;28;20385;-83
2023/07/31 05:13:01;;;;;;;4.75;1.10;;;17.90;99.90;;;;;;5057939;28;20025;-83
2023/07/31 05:15:27;;;;;;;2.88;1.02;;;17.90;99.90;;;;;;5076263;28;20024;-82
2023/07/31 05:17:52;;;;;;;4.20;1.20;;;17.90;99.90;;;;;;5057951;28;20116;-82
2023/07/31 05:20:18;;;;;;;4.63;0.85;;;17.80;99.90;;;;;;5058471;28;20028;-83
2023/07/31 05:22:43;;;;;;;5.03;1.17;;;17.90;99.90;;;;;;5075440;28;20056;-82
2023/07/31 05:25:09;;;;;;;2.00;1.00;;;17.90;99.90;;;;;;5058668;28;20028;-82
2023/07/31 05:27:35;;;;;;;3.42;1.33;;;18.00;99.90;;;;;;5058414;28;20472;-81
2023/07/31 05:30:02;;;;;;;2.42;0.90;;;18.10;99.90;;;;;;5057570;28;20309;-82
2023/07/31 05:32:27;;;;;;;3.92;1.00;;;18.10;99.90;;;;;;5075775;28;20033;-82
2023/07/31 05:34:53;;;;;;;1.40;0.80;;;18.10;99.90;;;;;;5075298;28;20024;-81
2023/07/31 05:37:19;;;;;;;3.55;1.08;;;18.20;99.90;;;;;;5075723;28;20082;-82
2023/07/31 05:39:44;;;;;;;3.85;1.10;;;18.10;99.90;;;;;;5057413;28;20555;-82
2023/07/31 05:42:10;;;;;;;2.78;1.00;;;18.20;99.90;;;;;;5057892;28;20115;-81
2023/07/31 05:44:36;;;;;;;3.30;1.17;;;18.20;99.90;;;;;;5075585;28;20032;-81
2023/07/31 05:47:01;;;;;;;3.67;1.02;;;18.20;99.90;;;;;;5075307;28;20078;-81
2023/07/31 05:49:27;;;;;;;2.80;1.10;;;18.20;99.90;;;;;;5058023;28;20032;-81
2023/07/31 05:51:53;;;;;;;2.30;0.85;;;18.30;99.90;;;;;;5075119;28;20028;-82
2023/07/31 05:54:18;;;;;;;4.75;1.42;;;18.30;99.90;;;;;;5075599;28;20099;-81
2023/07/31 05:56:44;;;;;;;2.03;1.00;;;18.20;99.90;;;;;;5075018;28;20107;-82
2023/07/31 05:59:12;;;;;;;4.38;0.88;;;18.30;99.90;;;;;;5075255;28;20381;-81
2023/07/31 06:01:37;;;;;;;3.38;1.08;;;18.30;99.90;;;;;;5057741;28;20035;-80
2023/07/31 06:04:03;;;;;;;2.72;0.98;;;18.30;99.90;;;;;;5050462;28;20021;-80
2023/07/31 06:06:29;;;;;;;2.17;1.00;;;18.40;99.90;;;;;;5051259;28;20070;-82
2023/07/31 06:08:55;;;;;;;4.53;1.05;;;18.50;99.90;;;;;;5052730;28;20063;-81
2023/07/31 06:11:21;;;;;;;3.80;0.85;;;18.50;99.90;;;;;;5038604;28;20036;-81
2023/07/31 06:13:49;;;;;;;3.17;1.23;;;18.60;99.90;;;;;;5053836;28;20055;-81
2023/07/31 06:16:15;;;;;;;2.10;0.80;;;18.60;99.90;;;;;;5035664;28;20082;-80
2023/07/31 06:18:41;;;;;;;2.38;1.20;;;18.60;99.90;;;;;;5036608;28;20116;-81
2023/07/31 06:21:06;;;;;;;6.18;1.35;;;18.70;99.90;;;;;;5035357;28;20055;-82
2023/07/31 06:23:32;;;;;;;5.18;1.70;;;18.70;99.90;;;;;;5035990;28;20330;-82
2023/07/31 06:25:58;;;;;;;3.58;1.10;;;18.80;99.90;;;;;;5035532;28;20040;-81
2023/07/31 06:28:30;;;;;;;3.83;0.98;;;18.90;99.90;;;;;;5054213;28;20036;-82
2023/07/31 06:30:56;;;;;;;3.00;0.90;;;19.00;99.90;;;;;;5035814;28;20040;-81
2023/07/31 06:33:22;;;;;;;3.22;1.08;;;19.00;99.90;;;;;;5036016;28;20024;-81
2023/07/31 06:35:48;;;;;;;5.13;1.25;;;19.10;99.90;;;;;;5052677;28;20021;-82
2023/07/31 06:38:13;;;;;;;3.08;1.42;;;19.10;99.90;;;;;;5035900;28;20116;-81
2023/07/31 06:40:39;;;;;;;4.35;1.17;;;19.10;99.90;;;;;;5035538;28;20462;-81
2023/07/31 06:43:07;;;;;;;2.00;0.90;;;19.20;99.90;;;;;;5053135;28;20067;-82
2023/07/31 06:45:37;;;;;;;4.55;1.10;;;19.20;99.90;;;;;;5035394;28;20032;-81
2023/07/31 06:48:03;;;;;;;4.75;1.00;;;19.30;99.90;;;;;;5053318;28;20362;-81
2023/07/31 06:50:30;;;;;;;5.03;1.50;;;19.20;99.90;;;;;;5054073;28;20033;-81
2023/07/31 06:52:56;;;;;;;9.02;1.30;;;19.20;99.90;;;;;;5053879;28;20107;-81
2023/07/31 06:55:22;;;;;;;2.75;1.08;;;19.30;99.90;;;;;;5036059;28;20112;-81
2023/07/31 06:57:49;;;;;;;4.72;1.05;;;19.30;99.90;;;;;;5036033;28;20028;-82
2023/07/31 07:00:14;;;;;;;3.35;0.95;;;19.20;99.90;;;;;;5036552;28;20052;-81
2023/07/31 07:02:40;;;;;;;4.63;1.40;;;19.20;99.90;;;;;;5033195;28;20036;-82
2023/07/31 07:05:07;;;;;;;2.22;1.10;;;19.20;99.90;;;;;;5034177;28;20044;-81
2023/07/31 07:07:33;;;;;;;3.60;1.20;;;19.20;99.90;;;;;;5053214;28;20071;-82
2023/07/31 07:09:59;;;;;;;5.15;1.27;;;19.20;99.90;;;;;;5052839;28;20072;-82
2023/07/31 07:12:25;;;;;;;2.78;1.17;;;19.20;99.90;;;;;;5053396;28;20535;-82
2023/07/31 07:14:52;;;;;;;4.75;1.27;;;19.20;99.90;;;;;;5053093;28;20021;-81
2023/07/31 07:17:19;;;;;;;2.55;0.77;;;19.30;99.90;;;;;;5035963;28;20078;-82
2023/07/31 07:19:45;;;;;;;2.72;0.90;;;19.30;99.90;;;;;;5045726;28;20037;-82
2023/07/31 07:22:11;;;;;;;2.65;1.08;;;19.40;99.90;;;;;;5035937;28;20029;-82
2023/07/31 07:24:37;;;;;;;2.67;0.95;;;19.40;99.90;;;;;;5053729;28;20187;-82
2023/07/31 07:27:03;;;;;;;4.55;1.40;;;19.40;99.90;;;;;;5027943;28;20057;-82
2023/07/31 07:29:28;;;;;;;3.50;1.17;;;19.50;99.90;;;;;;5054012;28;20442;-82
2023/07/31 07:31:54;;;;;;;3.72;1.20;;;19.60;99.90;;;;;;5053025;28;20041;-82
2023/07/31 07:34:22;;;;;;;2.13;1.13;;;19.70;99.90;;;;;;5038253;28;20071;-82
2023/07/31 07:36:48;;;;;;;2.67;1.00;;;19.70;99.90;;;;;;5057315;28;20029;-81
2023/07/31 07:39:14;;;;;;;4.60;1.52;;;19.80;99.90;;;;;;5039931;28;20029;-82
2023/07/31 07:41:39;;;;;;;6.07;1.20;;;19.90;99.90;;;;;;5056941;28;20048;-82
2023/07/31 07:44:05;;;;;;;4.55;1.23;;;19.90;99.90;;;;;;5039275;28;20497;-82
2023/07/31 07:46:31;;;;;;;3.67;1.23;;;19.80;99.90;;;;;;5039967;28;20029;-81
2023/07/31 07:48:56;;;;;;;2.45;0.80;;;19.90;99.90;;;;;;5038763;28;20390;-81
2023/07/31 07:51:22;;;;;;;3.08;1.20;;;20.00;99.90;;;;;;5029919;28;20083;-81
2023/07/31 07:53:47;;;;;;;1.90;0.80;;;20.00;99.90;;;;;;5021112;28;20060;-82
2023/07/31 07:56:13;;;;;;;2.65;1.20;;;20.10;99.90;;;;;;5023631;28;20041;-82
2023/07/31 07:58:38;;;;;;;5.80;1.80;;;20.10;99.90;;;;;;5046757;28;20028;-81
2023/07/31 08:01:04;;;;;;;4.13;1.20;;;20.10;99.90;;;;;;5057831;28;20493;-81
2023/07/31 08:03:30;;;;;;;5.35;1.10;;;20.10;99.90;;;;;;5053639;28;20378;-82
2023/07/31 08:06:01;;;;;;;2.67;1.00;;;20.00;99.90;;;;;;5038780;28;20052;-82
2023/07/31 08:08:28;;;;;;;5.30;1.27;;;20.00;99.90;;;;;;5040923;28;20035;-82
2023/07/31 08:10:54;;;;;;;3.80;1.20;;;20.00;99.90;;;;;;5038445;28;20039;-82
2023/07/31 08:13:19;;;;;;;3.55;0.90;;;20.00;99.90;;;;;;5072170;28;20029;-82
2023/07/31 08:15:45;;;;;;;5.07;1.33;;;20.00;99.90;;;;;;5043497;28;20021;-81
2023/07/31 08:18:11;;;;;;;3.42;1.25;;;20.10;99.90;;;;;;5055158;28;20035;-82
2023/07/31 08:20:37;;;;;;;3.17;1.20;;;20.20;99.90;;;;;;5056503;28;20017;-82
2023/07/31 08:23:03;;;;;;;3.38;1.08;;;20.30;99.90;;;;;;5038296;28;20107;-81
2023/07/31 08:25:29;;;;;;;4.53;1.95;;;20.40;99.90;;;;;;5038789;28;20057;-78
2023/07/31 08:27:55;;;;;;;5.22;1.08;;;20.50;99.90;;;;;;5037359;28;20029;-79
2023/07/31 08:30:21;;;;;;;2.97;1.23;;;20.50;99.90;;;;;;5055061;28;20091;-82
2023/07/31 08:32:47;;;;;;;3.65;1.20;;;20.50;99.90;;;;;;5056395;28;20025;-82
2023/07/31 08:35:12;;;;;;;4.03;1.60;;;20.50;99.90;;;;;;5039519;28;20363;-82
2023/07/31 08:37:38;;;;;;;3.05;1.20;;;20.60;99.90;;;;;;5039260;28;20047;-82
2023/07/31 08:40:05;;;;;;;3.85;1.25;;;20.70;99.90;;;;;;5055791;28;20041;-81
2023/07/31 08:42:31;;;;;;;2.72;1.05;;;20.70;99.90;;;;;;5037210;28;20039;-81
2023/07/31 08:44:59;;;;;;;2.53;1.02;;;20.60;99.90;;;;;;5037219;28;20075;-80
2023/07/31 08:47:27;;;;;;;3.00;1.13;;;20.60;99.90;;;;;;5038289;28;20060;-81
2023/07/31 08:49:54;;;;;;;3.65;1.50;;;20.60;99.90;;;;;;5037554;28;20033;-83
2023/07/31 08:52:20;;;;;;;3.97;1.40;;;20.60;99.90;;;;;;5054176;28;20025;-81
2023/07/31 08:54:45;;;;;;;6.60;1.40;;;20.60;99.90;;;;;;5055590;28;20071;-79
2023/07/31 08:57:13;;;;;;;3.55;1.27;;;20.60;99.90;;;;;;5054790;28;20021;-79
2023/07/31 08:59:40;;;;;;;3.42;1.40;;;20.60;99.90;;;;;;5058878;28;20113;-80
2023/07/31 09:02:08;;;;;;;4.82;1.10;;;20.70;99.90;;;;;;5054543;28;20025;-78
2023/07/31 09:04:34;;;;;;;5.10;1.35;;;20.80;99.90;;;;;;5055194;28;20032;-83
2023/07/31 09:07:05;;;;;;;7.97;1.40;;;20.80;99.90;;;;;;5054157;28;20032;-80
2023/07/31 09:09:31;;;;;;;2.30;1.20;;;20.80;99.90;;;;;;5037019;28;20045;-80
2023/07/31 09:11:58;;;;;;;6.95;1.50;;;20.90;99.90;;;;;;5037223;28;20504;-80
2023/07/31 09:14:25;;;;;;;3.53;1.23;;;21.00;99.50;;;;;;5060552;28;20036;-83
2023/07/31 09:16:53;;;;;;;4.40;1.67;;;21.00;99.60;;;;;;5037854;28;20557;-84
2023/07/31 09:19:36;;;;;;;6.00;1.20;;;21.10;99.40;;;;;;5055941;28;20036;-79
2023/07/31 09:22:02;;;;;;;2.50;1.02;;;21.20;99.80;;;;;;5037140;28;20028;-81
2023/07/31 09:24:31;;;;;;;7.20;1.30;;;21.30;99.80;;;;;;5037546;28;20039;-82
2023/07/31 09:26:58;;;;;;;4.63;1.42;;;21.40;99.00;;;;;;5036754;28;20032;-83
2023/07/31 09:29:26;;;;;;;3.08;1.33;;;21.40;98.60;;;;;;5037693;28;20119;-81
2023/07/31 09:31:52;;;;;;;3.53;1.13;;;21.50;98.70;;;;;;5037668;28;20029;-84
2023/07/31 09:34:19;;;;;;;3.08;1.23;;;21.60;98.10;;;;;;5037345;28;20489;-82
2023/07/31 09:36:50;;;;;;;3.45;1.20;;;21.70;97.90;;;;;;5037132;28;20037;-80
2023/07/31 09:39:16;;;;;;;4.03;1.20;;;21.70;97.70;;;;;;5053449;28;20025;-79
2023/07/31 09:41:45;;;;;;;2.85;0.95;;;21.80;97.60;;;;;;5036790;28;20044;-80
2023/07/31 09:44:11;;;;;;;4.22;1.25;;;21.80;97.70;;;;;;5042133;28;20176;-81
2023/07/31 09:46:37;;;;;;;3.58;1.35;;;21.80;97.30;;;;;;5054164;28;20083;-80
2023/07/31 09:49:09;;;;;;;5.28;1.40;;;21.90;97.40;;;;;;5035642;28;20087;-79
2023/07/31 09:51:38;;;;;;;4.32;1.50;;;22.10;97.10;;;;;;5049833;28;20086;-79
2023/07/31 09:54:09;;;;;;;4.63;1.50;;;22.10;97.10;;;;;;5074858;28;20083;-82
2023/07/31 09:56:36;;;;;;;6.10;1.20;;;22.10;97.20;;;;;;5074746;28;20112;-78
2023/07/31 09:59:03;;;;;;;3.38;1.48;;;22.10;96.70;;;;;;5047062;28;20033;-80
2023/07/31 10:01:29;;;;;;;2.90;1.27;;;22.00;96.40;;;;;;5037349;28;20030;-79
2023/07/31 10:03:57;;;;;;;4.47;1.35;;;22.00;96.50;;;;;;5037004;28;20124;-79
2023/07/31 10:06:24;;;;;;;8.55;1.45;;;22.10;96.70;;;;;;5055647;28;20051;-79
2023/07/31 10:08:52;;;;;;;4.35;1.58;;;22.20;96.70;;;;;;5053970;28;20029;-81
2023/07/31 10:11:18;;;;;;;4.60;2.28;;;22.30;96.30;;;;;;5037288;28;20040;-80
2023/07/31 10:13:45;;;;;;;3.58;1.15;;;22.30;96.10;;;;;;5054862;28;20125;-79
2023/07/31 10:16:13;;;;;;;5.32;1.45;;;22.30;95.70;;;;;;5036779;28;20017;-79
2023/07/31 10:18:40;;;;;;;3.67;1.40;;;22.30;95.90;;;;;;5036761;28;20025;-79
2023/07/31 10:21:06;;;;;;;5.10;1.80;;;22.20;95.70;;;;;;5036256;28;20036;-79
2023/07/31 10:23:32;;;;;;;5.97;1.20;;;22.20;96.00;;;;;;5054474;28;20025;-79
2023/07/31 10:25:59;;;;;;;3.90;1.50;;;22.30;96.20;;;;;;5036537;28;20024;-80
2023/07/31 10:28:26;;;;;;;5.07;1.58;;;22.40;96.00;;;;;;5054466;28;20025;-80
2023/07/31 10:30:53;;;;;;;3.58;1.23;;;22.40;96.00;;;;;;5054533;28;20032;-84
2023/07/31 10:33:20;;;;;;;5.88;1.95;;;22.30;95.90;;;;;;5036575;28;20024;-80
2023/07/31 10:35:48;;;;;;;4.97;1.50;;;22.50;96.40;;;;;;5054482;28;20084;-80
2023/07/31 10:38:14;;;;;;;2.92;1.30;;;22.70;96.00;;;;;;5053798;28;20044;-80
2023/07/31 10:40:40;;;;;;;4.53;1.17;;;22.80;96.00;;;;;;5053191;28;20060;-79
2023/07/31 10:43:08;;;;;;;6.22;1.30;;;22.70;96.00;;;;;;5053751;28;20037;-80
2023/07/31 10:45:42;;;;;;;4.28;1.40;;;22.70;95.90;;;;;;5037182;28;20075;-80
2023/07/31 10:48:14;;;;;;;9.15;2.13;;;22.70;95.50;;;;;;5035725;28;20017;-80
2023/07/31 10:50:55;;;;;;;4.95;1.55;;;22.70;95.60;;;;;;5036641;28;20021;-80
2023/07/31 10:53:26;;;;;;;4.30;1.20;;;22.70;95.60;;;;;;5054220;28;20028;-80
2023/07/31 10:55:52;;;;;;;4.00;1.23;;;22.80;95.70;;;;;;5053751;28;20033;-86
2023/07/31 10:58:20;;;;;;;9.52;1.67;;;22.80;96.00;;;;;;5053894;28;20476;-80
2023/07/31 11:00:45;;;;;;;4.10;1.20;;;23.00;96.20;;;;;;5048754;28;20095;-80
2023/07/31 11:03:14;;;;;;;4.22;1.30;;;22.90;95.60;;;;;;5053242;28;20509;-80
2023/07/31 11:05:46;;;;;;;6.30;1.48;;;23.00;95.40;;;;;;5036284;28;20103;-81
2023/07/31 11:08:16;;;;;;;4.50;1.25;;;22.90;95.30;;;;;;5033893;28;20561;-81
2023/07/31 11:10:43;;;;;;;6.63;1.40;;;22.90;95.30;;;;;;5031682;28;20086;-80
2023/07/31 11:13:09;;;;;;;4.45;1.65;;;22.90;95.30;;;;;;5035397;28;20037;-80
2023/07/31 11:15:35;;;;;;;5.40;1.40;;;23.00;95.20;;;;;;5053576;28;20032;-80
2023/07/31 11:18:10;;;;;;;6.78;1.58;;;23.00;95.30;;;;;;5035394;28;20025;-81
2023/07/31 11:20:37;;;;;;;4.38;1.65;;;23.20;95.20;;;;;;5053916;28;20024;-80
2023/07/31 11:23:06;;;;;;;4.30;1.33;;;23.10;95.20;;;;;;5034931;28;20052;-81
2023/07/31 11:25:32;;;;;;;4.40;1.90;;;23.00;95.50;;;;;;5036308;28;20401;-80
2023/07/31 11:28:13;;;;;;;4.80;1.30;;;23.00;95.30;;;;;;5052701;28;20107;-81
2023/07/31 11:30:42;;;;;;;3.30;1.33;;;23.00;95.80;;;;;;5052857;28;20053;-81
2023/07/31 11:33:11;;;;;;;8.10;1.15;;;23.00;95.40;;;;;;5051337;28;20017;-88
2023/07/31 11:35:41;;;;;;;3.10;1.30;;;23.00;95.50;;;;;;5026803;28;20026;-80
2023/07/31 11:38:08;;;;;;;3.80;1.60;;;23.10;95.40;;;;;;5053994;28;20028;-81
2023/07/31 11:40:44;;;;;;;8.48;1.48;;;23.20;95.20;;;;;;5035032;28;20270;-81
2023/07/31 11:43:16;;;;;;;5.45;1.45;;;23.20;95.00;;;;;;5052730;28;20432;-81
2023/07/31 11:45:41;;;;;;;3.60;1.40;;;23.20;95.50;;;;;;5053481;28;20085;-81
2023/07/31 11:48:07;;;;;;;3.92;1.42;;;23.30;95.20;;;;;;5034585;28;20056;-81
2023/07/31 11:50:35;;;;;;;9.07;1.58;;;23.40;95.20;;;;;;5052476;28;20100;-80
2023/07/31 11:53:04;;;;;;;3.40;1.40;;;23.40;95.30;;;;;;5053094;28;21040;-81
2023/07/31 11:55:30;;;;;;;5.80;1.60;;;23.30;94.90;;;;;;5043708;28;20052;-80
2023/07/31 11:57:58;;;;;;;4.82;1.60;;;23.40;95.20;;;;;;5053193;28;20358;-81
2023/07/31 12:00:25;;;;;;;3.35;1.38;;;23.40;95.30;;;;;;5035296;28;20200;-80
2023/07/31 12:02:51;;;;;;;3.25;1.50;;;23.50;95.10;;;;;;5035334;28;20067;-80
2023/07/31 12:05:17;;;;;;;1.90;0.98;;;23.60;95.30;;;;;;5035446;28;20059;-80
2023/07/31 12:07:54;;;;;;;5.30;1.63;;;23.40;95.00;;;;;;5035235;28;20021;-81
2023/07/31 12:10:23;;;;;;;3.35;1.20;;;23.50;94.70;;;;;;5033576;28;20037;-81
2023/07/31 12:13:26;;;;;;;4.88;1.50;;;23.60;94.90;;;;;;5034488;28;20029;-80
2023/07/31 12:15:57;;;;;;;6.47;1.48;;;23.70;94.60;;;;;;5035586;28;20026;-80
2023/07/31 12:18:24;;;;;;;3.22;1.42;;;23.70;94.40;;;;;;5035246;28;20112;-79
2023/07/31 12:20:58;;;;;;;2.85;1.30;;;23.70;94.30;;;;;;5056248;28;20029;-80
2023/07/31 12:23:29;;;;;;;4.65;1.30;;;23.70;94.30;;;;;;5039125;28;20029;-80
2023/07/31 12:26:08;;;;;;;3.85;1.55;;;23.80;94.20;;;;;;5039171;28;20075;-80
2023/07/31 12:28:38;;;;;;;8.20;1.60;;;23.90;94.00;;;;;;5038318;28;20382;-80
2023/07/31 12:31:09;;;;;;;3.58;1.50;;;23.90;93.60;;;;;;5037610;28;20021;-80
2023/07/31 12:33:35;;;;;;;;;;;23.90;94.00;;;;;;5053102;28;21300;-80
2023/07/31 12:36:03;;;;;;;8.30;1.45;;;24.10;94.00;;;;;;5038301;28;19912;-81
2023/07/31 12:38:30;;;;;;;4.47;1.33;;;24.20;93.50;;;;;;5056197;28;20037;-81
2023/07/31 12:40:55;;;;;;;2.97;1.15;;;24.30;93.20;;;;;;5056438;28;20534;-79
2023/07/31 12:43:21;;;;;;;5.63;1.30;;;24.30;93.00;;;;;;5055671;28;20179;-80
2023/07/31 12:45:47;;;;;;;2.88;1.42;;;24.40;93.00;;;;;;5038640;28;20028;-79